Portada
METAR-TAF:

METAR-TAF

Aeroports :

Gilmer Municipal Airport (Fox Stephens Field)

Gilmer, Texas, Estats Units d'Amèrica

latitud: 32-41-56N, longitud: 094-56-55W, altitud: 127 m

Observació

L'informe es va fer fa 12 minuts, a les 16:15 UTC
Vent 8 kt del Nord/Nord-Oest amb ràfegues de 14 kt
Temperatura 23°C
Humitat 89%
Pressió 1020 hPa
Visibilitat: 16.1 km
Cel ennuvolat a una alçada de 2900 ft
Cel cobert a una alçada de 6000 ft

METAR: KJXI 051615Z AUTO 34008G14KT 10SM BKN029 OVC060 23/21 A3011 RMK AO2 T02340207

Hora: 11:27 (16:27 UTC)


TAF: manca

Observacions i pronòstics meteorològics de més de 4000 aeroports (METAR i TAF).

Les estacions disponibles són els punts grocs i vermells al mapa.

Posi el ratolí al punt desitjat per veure el nom de l'estació.

Feu clic per veure les observacions i els pronòstics meteorològics.

Per canviar el mapa: feu clic els botons verds amb una creu de color negre per apropar; al botó verd amb un guió per allunyar la imatge; o en les fletxes verdes per a mapes adjacents.


METAR-TAF: